Time;durP1;ratioP1;P1;durP2;ratioP2;P2;SDS_P1;SDS_P2;PMS_P1;PMS_P2;Temp;Humidity;BMP_temperature;BMP_pressure;BME280_temperature;BME280_humidity;BME280_pressure;Samples;Min_cycle;Max_cycle;Signal;HPM_P1;HPM_P2
2023/06/12 00:00:39;;;;;;;63.65;25.75;;;;;;;14.42;100.00;92499.63;4953789;29;20027;-77
2023/06/12 00:03:06;;;;;;;55.15;23.33;;;;;;;14.34;100.00;92493.25;4953514;29;20038;-77
2023/06/12 00:05:32;;;;;;;57.70;23.20;;;;;;;14.37;100.00;92503.16;4954597;28;20070;-77
2023/06/12 00:07:58;;;;;;;57.55;24.10;;;;;;;14.36;100.00;92503.47;4952327;29;20062;-78
2023/06/12 00:10:24;;;;;;;59.97;22.45;;;;;;;14.34;100.00;92500.38;4951304;29;20047;-78
2023/06/12 00:12:50;;;;;;;56.47;23.75;;;;;;;14.35;100.00;92505.34;4949650;29;20264;-77
2023/06/12 00:15:16;;;;;;;57.20;23.75;;;;;;;14.38;100.00;92509.97;4945633;29;20070;-77
2023/06/12 00:17:42;;;;;;;57.47;22.15;;;;;;;14.42;100.00;92507.50;4951776;29;20493;-77
2023/06/12 00:20:08;;;;;;;48.67;21.65;;;;;;;14.43;100.00;92508.28;4952438;28;20097;-77
2023/06/12 00:22:39;;;;;;;60.95;24.25;;;;;;;14.49;100.00;92509.69;4958609;29;20054;-76
2023/06/12 00:25:07;;;;;;;57.28;23.83;;;;;;;14.51;100.00;92507.53;4937749;29;20047;-77
2023/06/12 00:27:32;;;;;;;54.72;22.63;;;;;;;14.51;100.00;92502.25;4956661;29;20035;-77
2023/06/12 00:29:58;;;;;;;55.13;21.15;;;;;;;14.50;100.00;92495.41;4940668;29;20039;-78
2023/06/12 00:32:23;;;;;;;51.80;20.63;;;;;;;14.50;100.00;92495.41;4958040;29;20051;-76
2023/06/12 00:34:49;;;;;;;46.88;19.38;;;;;;;14.48;100.00;92497.63;4924804;29;20061;-76
2023/06/12 00:37:17;;;;;;;51.75;20.60;;;;;;;14.46;100.00;92494.50;4940180;29;20047;-76
2023/06/12 00:39:46;;;;;;;49.55;20.83;;;;;;;14.46;100.00;92495.28;4939551;29;20046;-76
2023/06/12 00:42:11;;;;;;;57.92;21.35;;;;;;;14.44;100.00;92491.41;4939745;29;20489;-76
2023/06/12 00:44:37;;;;;;;48.60;21.00;;;;;;;14.43;100.00;92490.63;4939867;29;20043;-77
2023/06/12 00:47:04;;;;;;;49.90;20.75;;;;;;;14.43;100.00;92490.63;4957512;29;20039;-76
2023/06/12 00:49:30;;;;;;;59.22;21.77;;;;;;;14.42;100.00;92494.34;4909412;29;20098;-77
2023/06/12 00:51:56;;;;;;;52.45;21.23;;;;;;;14.42;100.00;92496.22;4926884;29;20071;-77
2023/06/12 00:54:22;;;;;;;46.55;19.80;;;;;;;14.40;100.00;92495.75;4930388;29;20036;-77
2023/06/12 00:56:48;;;;;;;47.67;19.83;;;;;;;14.35;100.00;92494.81;4926350;29;20035;-77
2023/06/12 00:59:16;;;;;;;43.13;19.83;;;;;;;14.34;100.00;92493.25;4937679;29;20075;-77
2023/06/12 01:01:42;;;;;;;51.92;19.67;;;;;;;14.38;100.00;92494.16;4936667;29;20115;-77
2023/06/12 01:04:09;;;;;;;48.42;18.70;;;;;;;14.35;100.00;92497.44;4937220;29;20472;-76
2023/06/12 01:06:47;;;;;;;49.47;19.17;;;;;;;14.34;100.00;92500.38;4919486;29;20106;-76
2023/06/12 01:09:41;;;;;;;45.10;18.80;;;;;;;14.34;100.00;92505.63;4927472;29;20445;-77
2023/06/12 01:12:07;;;;;;;42.42;17.85;;;;;;;14.35;100.00;92492.16;4924853;29;20046;-77
2023/06/12 01:14:33;;;;;;;41.53;17.15;;;;;;;14.38;100.00;92496.81;4929585;29;20103;-76
2023/06/12 01:17:02;;;;;;;39.33;16.55;;;;;;;14.42;100.00;92496.97;4928320;29;20405;-77
2023/06/12 01:19:29;;;;;;;62.58;18.42;;;;;;;14.45;100.00;92503.47;4952899;29;20058;-77
2023/06/12 01:21:59;;;;;;;49.92;19.80;;;;;;;14.43;100.00;92501.16;4916545;29;20048;-75
2023/06/12 01:24:55;;;;;;;43.65;18.58;;;;;;;14.46;100.00;92494.50;4934809;29;20572;-76
2023/06/12 01:27:39;;;;;;;45.90;18.60;;;;;;;14.47;100.00;92485.50;4916376;29;20118;-77
2023/06/12 01:30:42;;;;;;;48.75;19.17;;;;;;;14.51;100.00;92494.34;4931615;29;20059;-77
2023/06/12 01:33:13;;;;;;;45.40;18.83;;;;;;;14.52;100.00;92498.53;4946518;28;20050;-77
2023/06/12 01:35:43;;;;;;;57.70;20.70;;;;;;;14.53;100.00;92490.31;4916663;29;20060;-77
2023/06/12 01:38:32;;;;;;;44.45;18.75;;;;;;;14.55;100.00;92492.69;4920045;29;20036;-76
2023/06/12 01:41:00;;;;;;;46.13;20.70;;;;;;;14.54;100.00;92491.88;4947614;29;20020;-77
2023/06/12 01:43:26;;;;;;;46.55;19.42;;;;;;;14.55;100.00;92484.78;4934948;29;20505;-77
2023/06/12 01:45:52;;;;;;;49.97;19.55;;;;;;;14.58;100.00;92478.88;4928564;29;20513;-76
2023/06/12 01:48:17;;;;;;;45.75;19.48;;;;;;;14.56;100.00;92471.28;4938902;29;20115;-77
2023/06/12 01:50:43;;;;;;;41.42;18.88;;;;;;;14.53;100.00;92469.25;4938946;29;20249;-77
2023/06/12 01:53:15;;;;;;;45.40;19.42;;;;;;;14.56;100.00;92473.91;4936367;29;20478;-77
2023/06/12 01:55:41;;;;;;;47.60;19.80;;;;;;;14.54;100.00;92475.28;4953850;29;20067;-77
2023/06/12 01:58:08;;;;;;;43.90;19.55;;;;;;;14.50;100.00;92475.16;4937192;29;20520;-77
2023/06/12 02:00:57;;;;;;;47.08;19.83;;;;;;;14.46;100.00;92474.22;4944417;29;20043;-77
2023/06/12 02:03:24;;;;;;;41.38;18.13;;;;;;;14.45;100.00;92470.00;4938147;29;20043;-75
2023/06/12 02:05:50;;;;;;;44.75;19.90;;;;;;;14.42;100.00;92461.97;4937871;29;20042;-77
2023/06/12 02:08:15;;;;;;;49.17;20.45;;;;;;;14.42;100.00;92461.97;4937864;29;20039;-77
2023/06/12 02:10:41;;;;;;;40.50;19.65;;;;;;;14.38;100.00;92457.31;4938248;29;20031;-77
2023/06/12 02:13:07;;;;;;;51.92;19.88;;;;;;;14.37;100.00;92457.63;4938551;29;20046;-77
2023/06/12 02:15:32;;;;;;;48.38;20.08;;;;;;;14.36;100.00;92450.81;4938407;29;20027;-77
2023/06/12 02:18:00;;;;;;;47.00;19.42;;;;;;;14.35;100.00;92451.91;4918554;29;20059;-76
2023/06/12 02:20:28;;;;;;;45.50;19.05;;;;;;;14.35;100.00;92451.91;4938562;29;20126;-76
2023/06/12 02:22:53;;;;;;;50.00;20.13;;;;;;;14.35;100.00;92446.63;4936103;29;20102;-77
2023/06/12 02:25:19;;;;;;;41.72;18.92;;;;;;;14.34;100.00;92445.06;4937712;29;20083;-75
2023/06/12 02:27:45;;;;;;;50.80;19.23;;;;;;;14.33;100.00;92451.44;4922397;29;20489;-77
2023/06/12 02:30:11;;;;;;;43.42;19.52;;;;;;;14.30;100.00;92444.16;4954708;29;20042;-77
2023/06/12 02:32:39;;;;;;;52.28;18.63;;;;;;;14.29;100.00;92443.38;4938193;29;20047;-75
2023/06/12 02:35:08;;;;;;;45.17;19.00;;;;;;;14.25;100.00;92437.19;4954729;28;20042;-76
2023/06/12 02:37:35;;;;;;;45.40;18.67;;;;;;;14.24;100.00;92433.00;4953818;29;20137;-76
2023/06/12 02:40:01;;;;;;;48.08;18.17;;;;;;;14.22;100.00;92442.28;4937701;29;20442;-77
2023/06/12 02:42:27;;;;;;;38.85;17.55;;;;;;;14.19;100.00;92422.63;4937606;29;20134;-76
2023/06/12 02:44:53;;;;;;;38.03;16.13;;;;;;;14.15;100.00;92426.97;4937208;29;20137;-77
2023/06/12 02:47:21;;;;;;;40.28;15.85;;;;;;;14.10;100.00;92429.75;4936923;29;20046;-76
2023/06/12 02:49:47;;;;;;;36.72;16.02;;;;;;;14.07;100.00;92430.34;4937417;29;20051;-77
2023/06/12 02:52:19;;;;;;;34.58;15.07;;;;;;;14.02;100.00;92427.88;4937848;29;20043;-77
2023/06/12 02:54:45;;;;;;;34.08;12.80;;;;;;;13.99;100.00;92426.63;4954621;28;20118;-77
2023/06/12 02:57:10;;;;;;;31.60;13.10;;;;;;;13.91;100.00;92422.13;4954152;29;20058;-77
2023/06/12 02:59:36;;;;;;;26.15;11.82;;;;;;;13.86;100.00;92420.41;4937811;29;20050;-77
2023/06/12 03:02:08;;;;;;;36.83;12.90;;;;;;;13.85;100.00;92418.13;4922118;29;20500;-77
2023/06/12 03:04:43;;;;;;;36.42;14.05;;;;;;;13.81;100.00;92417.94;4923089;29;20082;-77
2023/06/12 03:07:12;;;;;;;34.33;14.35;;;;;;;13.78;100.00;92421.19;4947253;29;20043;-76
2023/06/12 03:09:38;;;;;;;27.88;13.18;;;;;;;13.73;100.00;92416.84;4932587;29;20118;-74
2023/06/12 03:12:05;;;;;;;29.48;12.93;;;;;;;13.71;100.00;92423.47;4937562;29;20061;-77
2023/06/12 03:14:33;;;;;;;30.25;13.05;;;;;;;13.68;100.00;92418.84;4936468;29;20449;-77
2023/06/12 03:16:59;;;;;;;29.48;12.48;;;;;;;13.65;100.00;92416.84;4936695;29;20483;-76
2023/06/12 03:19:24;;;;;;;29.88;12.68;;;;;;;13.61;100.00;92413.25;4936839;29;20122;-77
2023/06/12 03:21:50;;;;;;;26.33;11.82;;;;;;;13.62;100.00;92417.44;4920857;29;20023;-77
2023/06/12 03:24:16;;;;;;;31.80;13.15;;;;;;;13.60;100.00;92419.59;4935833;29;20042;-77
2023/06/12 03:26:42;;;;;;;35.50;14.15;;;;;;;13.58;100.00;92413.84;4954002;29;20031;-76
2023/06/12 03:29:08;;;;;;;31.80;14.20;;;;;;;13.56;100.00;92411.56;4956182;29;20071;-77
2023/06/12 03:31:34;;;;;;;34.30;14.50;;;;;;;13.53;100.00;92412.94;4922326;29;20038;-77
2023/06/12 03:34:00;;;;;;;33.22;14.52;;;;;;;13.50;100.00;92410.91;4953674;28;20036;-76
2023/06/12 03:36:28;;;;;;;36.45;14.60;;;;;;;13.47;100.00;92406.25;4934595;29;20525;-75
2023/06/12 03:38:55;;;;;;;35.83;15.70;;;;;;;13.49;100.00;92417.25;4953366;29;20040;-77
2023/06/12 03:41:22;;;;;;;32.78;14.50;;;;;;;13.47;100.00;92408.91;4928656;29;20044;-76
2023/06/12 03:43:49;;;;;;;34.88;14.77;;;;;;;13.52;100.00;92411.38;4951717;28;20424;-76
2023/06/12 03:46:14;;;;;;;29.20;13.75;;;;;;;13.49;100.00;92412.00;4936017;29;20062;-77
2023/06/12 03:48:41;;;;;;;31.77;14.35;;;;;;;13.47;100.00;92413.38;4937487;29;20047;-75
2023/06/12 03:51:07;;;;;;;28.08;14.07;;;;;;;13.44;100.00;92417.41;4950044;29;20035;-77
2023/06/12 03:53:32;;;;;;;32.47;15.68;;;;;;;13.41;100.00;92410.09;4952658;29;20500;-77
2023/06/12 03:55:58;;;;;;;37.30;16.25;;;;;;;13.40;100.00;92410.44;4938229;29;20465;-76
2023/06/12 03:58:26;;;;;;;44.63;14.60;;;;;;;13.40;100.00;92416.47;4957992;28;20129;-78
2023/06/12 04:00:52;;;;;;;32.58;14.10;;;;;;;13.43;100.00;92413.22;4925318;29;20555;-78
2023/06/12 04:03:21;;;;;;;31.73;13.88;;;;;;;13.45;100.00;92408.41;4945770;28;20477;-77
2023/06/12 04:05:51;;;;;;;38.17;14.20;;;;;;;13.48;100.00;92412.28;4938542;29;20093;-78
2023/06/12 04:08:18;;;;;;;24.52;12.57;;;;;;;13.53;100.00;92405.06;4941243;29;20521;-79
2023/06/12 04:10:44;;;;;;;31.35;14.13;;;;;;;13.50;100.00;92403.00;4940298;29;20050;-78
2023/06/12 04:13:10;;;;;;;26.80;13.77;;;;;;;13.54;100.00;92398.69;4958976;28;20035;-79
2023/06/12 04:15:39;;;;;;;62.83;24.65;;;;;;;13.56;100.00;92405.53;4941157;29;20187;-78
2023/06/12 04:18:07;;;;;;;76.15;30.55;;;;;;;13.58;100.00;92400.69;4907977;29;20047;-76
2023/06/12 04:20:33;;;;;;;51.78;21.65;;;;;;;13.60;100.00;92401.97;4939992;29;20039;-78
2023/06/12 04:23:04;;;;;;;42.25;20.38;;;;;;;13.60;100.00;92403.81;4941266;29;20111;-78
2023/06/12 04:25:32;;;;;;;42.45;18.38;;;;;;;13.61;100.00;92397.47;4942107;29;20389;-78
2023/06/12 04:28:03;;;;;;;30.92;15.32;;;;;;;13.63;100.00;92397.94;4944445;29;20085;-78
2023/06/12 04:30:31;;;;;;;31.90;14.23;;;;;;;13.67;100.00;92404.16;4926753;29;20039;-78
2023/06/12 04:32:57;;;;;;;25.70;12.43;;;;;;;13.69;100.00;92397.50;4955500;29;20089;-78
2023/06/12 04:35:23;;;;;;;25.30;11.85;;;;;;;13.75;100.00;92398.13;4958191;29;20154;-79
2023/06/12 04:37:51;;;;;;;24.63;12.18;;;;;;;13.78;100.00;92401.97;4947673;29;20564;-79
2023/06/12 04:40:16;;;;;;;24.27;11.50;;;;;;;13.83;100.00;92407.88;4940777;29;20031;-79
2023/06/12 04:42:43;;;;;;;21.90;11.57;;;;;;;13.87;100.00;92406.19;4942402;29;20035;-79
2023/06/12 04:45:12;;;;;;;23.75;11.57;;;;;;;13.92;100.00;92406.03;4944965;29;20047;-80
2023/06/12 04:47:40;;;;;;;23.75;12.38;;;;;;;13.96;100.00;92406.22;4933841;29;20106;-80
2023/06/12 04:50:09;;;;;;;23.55;11.50;;;;;;;14.02;100.00;92399.69;4960668;28;20047;-79
2023/06/12 04:52:36;;;;;;;21.35;10.85;;;;;;;14.07;100.00;92393.50;4959050;29;20488;-80
2023/06/12 04:55:03;;;;;;;21.85;11.32;;;;;;;14.12;100.00;92403.91;4943976;29;20031;-80
2023/06/12 04:57:29;;;;;;;27.30;10.77;;;;;;;14.14;100.00;92407.00;4943875;29;20134;-80
2023/06/12 04:59:55;;;;;;;24.30;11.27;;;;;;;14.20;100.00;92402.34;4944414;29;20035;-79
2023/06/12 05:02:21;;;;;;;22.85;10.98;;;;;;;14.25;100.00;92405.59;4952726;28;20548;-79
2023/06/12 05:04:47;;;;;;;22.13;11.52;;;;;;;14.29;100.00;92414.41;4958000;28;20043;-80
2023/06/12 05:07:19;;;;;;;20.30;10.88;;;;;;;14.33;100.00;92407.44;4938982;29;20043;-78
2023/06/12 05:09:48;;;;;;;27.48;11.70;;;;;;;14.43;100.00;92410.84;4939843;29;20062;-79
2023/06/12 05:12:14;;;;;;;22.60;11.27;;;;;;;14.50;100.00;92421.66;4926146;29;20062;-79
2023/06/12 05:14:42;;;;;;;27.23;12.70;;;;;;;14.56;100.00;92415.19;4924240;29;20039;-79
2023/06/12 05:17:09;;;;;;;23.65;11.48;;;;;;;14.66;100.00;92411.47;4915936;29;20126;-77
2023/06/12 05:19:38;;;;;;;23.48;12.20;;;;;;;14.76;100.00;92414.53;4954531;28;20900;-79
2023/06/12 05:22:05;;;;;;;24.38;12.27;;;;;;;14.87;100.00;92415.00;4940607;29;20071;-77
2023/06/12 05:24:32;;;;;;;29.58;12.20;;;;;;;14.98;100.00;92415.44;4938175;29;20572;-79
2023/06/12 05:26:57;;;;;;;27.23;13.10;;;;;;;15.12;100.00;92416.00;4931931;29;20059;-80
2023/06/12 05:29:23;;;;;;;38.45;14.70;;;;;;;15.28;100.00;92428.66;4940372;29;20046;-78
2023/06/12 05:31:49;;;;;;;44.97;15.40;;;;;;;15.40;100.00;92426.13;4921901;29;20035;-78
2023/06/12 05:34:15;;;;;;;27.23;14.10;;;;;;;15.50;100.00;92425.78;4939812;29;20040;-78
2023/06/12 05:36:41;;;;;;;36.65;15.60;;;;;;;15.47;100.00;92425.63;4963122;28;20057;-79
2023/06/12 05:39:07;;;;;;;24.55;13.05;;;;;;;15.54;100.00;92425.94;4969115;28;20046;-79
2023/06/12 05:41:32;;;;;;;20.20;12.00;;;;;;;15.56;100.00;92435.06;4952321;29;20032;-80
2023/06/12 05:43:58;;;;;;;17.25;11.00;;;;;;;15.73;100.00;92430.81;4965644;28;20037;-79
2023/06/12 05:46:24;;;;;;;22.67;11.48;;;;;;;16.23;100.00;92436.13;4949134;29;20641;-79
2023/06/12 05:48:51;;;;;;;18.75;11.05;;;;;;;17.09;100.00;92433.06;4952783;29;20055;-78
2023/06/12 05:51:16;;;;;;;17.50;11.05;;;;;;;17.60;100.00;92440.72;4967778;29;20050;-78
2023/06/12 05:53:47;;;;;;;20.25;10.80;;;;;;;18.08;100.00;92439.97;4932484;29;20051;-78
2023/06/12 05:56:13;;;;;;;18.90;10.15;;;;;;;18.45;100.00;92441.78;4966119;29;20035;-79
2023/06/12 05:58:42;;;;;;;16.15;9.88;;;;;;;18.86;100.00;92439.91;4968118;29;20078;-80
2023/06/12 06:01:11;;;;;;;20.23;9.20;;;;;;;19.34;100.00;92440.72;4964811;29;20035;-80
2023/06/12 06:03:53;;;;;;;24.98;10.48;;;;;;;19.58;100.00;92437.16;4964882;28;20050;-79
2023/06/12 06:06:19;;;;;;;21.60;9.07;;;;;;;19.97;100.00;92442.63;4963249;29;20035;-79
2023/06/12 06:08:45;;;;;;;14.82;9.23;;;;;;;20.03;100.00;92440.50;4944500;29;20453;-79
2023/06/12 06:11:13;;;;;;;15.55;9.27;;;;;;;20.18;100.00;92440.47;4961753;29;20046;-79
2023/06/12 06:13:41;;;;;;;13.93;8.48;;;;;;;20.66;100.00;92444.91;4948290;29;20133;-79
2023/06/12 06:16:09;;;;;;;12.75;8.48;;;;;;;20.30;100.00;92444.13;4931838;29;20039;-79
2023/06/12 06:18:35;;;;;;;14.60;7.53;;;;;;;19.76;100.00;92449.00;4946467;29;20134;-78
2023/06/12 06:21:01;;;;;;;12.52;7.55;;;;;;;19.39;100.00;92447.69;4946646;29;20041;-78
2023/06/12 06:23:27;;;;;;;12.95;7.32;;;;;;;19.94;100.00;92448.66;4946958;29;20110;-79
2023/06/12 06:25:52;;;;;;;13.50;8.30;;;;;;;20.03;100.00;92451.13;4947724;29;20065;-78
2023/06/12 06:28:19;;;;;;;16.17;7.80;;;;;;;19.88;100.00;92450.81;4940834;29;20036;-77
2023/06/12 06:30:45;;;;;;;15.18;7.97;;;;;;;19.84;100.00;92444.63;4939584;29;20045;-77
2023/06/12 06:33:11;;;;;;;12.88;8.18;;;;;;;19.87;100.00;92448.50;4937722;29;20039;-78
2023/06/12 06:35:36;;;;;;;15.55;8.20;;;;;;;20.21;100.00;92452.28;4955925;28;20031;-76
2023/06/12 06:38:02;;;;;;;16.15;7.95;;;;;;;20.17;100.00;92451.44;4937010;29;20117;-76
2023/06/12 06:40:28;;;;;;;12.02;7.90;;;;;;;20.02;100.00;92449.56;4937157;29;20039;-77
2023/06/12 06:42:55;;;;;;;12.40;7.75;;;;;;;19.73;100.00;92447.03;4920513;29;20046;-76
2023/06/12 06:45:28;;;;;;;12.98;7.35;;;;;;;19.68;100.00;92441.97;4951389;29;20039;-77
2023/06/12 06:47:54;;;;;;;14.07;8.32;;;;;;;19.88;100.00;92455.34;4935879;29;20043;-77
2023/06/12 06:50:21;;;;;;;14.85;8.40;;;;;;;19.54;100.00;92444.25;4941018;29;20101;-79
2023/06/12 06:52:47;;;;;;;11.05;7.22;;;;;;;19.88;100.00;92442.06;4943722;29;20039;-79
2023/06/12 06:55:13;;;;;;;19.75;8.52;;;;;;;19.56;100.00;92444.69;4943852;29;20039;-79
2023/06/12 06:57:39;;;;;;;14.75;7.72;;;;;;;19.44;100.00;92447.44;4944721;29;20027;-79
2023/06/12 07:00:06;;;;;;;12.60;7.20;;;;;;;19.87;100.00;92443.19;4927863;29;20042;-79
2023/06/12 07:02:33;;;;;;;17.95;10.20;;;;;;;19.54;100.00;92441.59;4928392;29;20036;-82
2023/06/12 07:05:00;;;;;;;17.52;10.38;;;;;;;19.13;100.00;92441.75;4908517;29;20036;-84
2023/06/12 07:07:26;;;;;;;17.90;10.80;;;;;;;19.05;100.00;92452.50;4919801;29;20481;-77
2023/06/12 07:09:52;;;;;;;15.40;9.75;;;;;;;19.04;100.00;92437.72;4935052;29;20063;-77
2023/06/12 07:12:19;;;;;;;16.33;9.23;;;;;;;19.55;100.00;92438.63;4918970;29;20037;-78
2023/06/12 07:14:45;;;;;;;12.68;7.53;;;;;;;20.07;100.00;92436.81;4935851;29;20055;-76
2023/06/12 07:17:12;;;;;;;14.15;8.85;;;;;;;20.42;100.00;92436.00;4934771;29;20135;-78
2023/06/12 07:19:39;;;;;;;15.20;9.15;;;;;;;20.32;100.00;92439.22;4934991;29;20052;-77
2023/06/12 07:22:05;;;;;;;17.77;9.65;;;;;;;19.93;100.00;92437.25;4903143;29;20512;-76
2023/06/12 07:24:31;;;;;;;17.25;9.82;;;;;;;19.87;100.00;92437.88;4933529;29;20095;-75
2023/06/12 07:26:56;;;;;;;16.50;9.15;;;;;;;19.22;100.00;92438.94;4917702;29;20047;-74
2023/06/12 07:29:23;;;;;;;17.23;9.48;;;;;;;18.83;100.00;92436.03;4917507;29;20047;-74
2023/06/12 07:31:49;;;;;;;19.48;10.48;;;;;;;18.75;100.00;92433.50;4915964;29;20036;-74
2023/06/12 07:34:16;;;;;;;18.92;10.38;;;;;;;18.85;100.00;92438.38;4913695;29;20047;-74
2023/06/12 07:36:42;;;;;;;16.27;11.20;;;;;;;18.92;100.00;92436.66;4891021;29;20064;-75
2023/06/12 07:39:08;;;;;;;14.52;8.93;;;;;;;19.18;100.00;92434.66;4913283;29;20039;-74
2023/06/12 07:41:38;;;;;;;15.75;8.88;;;;;;;19.29;100.00;92436.44;4917378;29;20122;-75
2023/06/12 07:44:06;;;;;;;15.27;8.05;;;;;;;19.59;100.00;92429.97;4915117;29;20451;-74
2023/06/12 07:46:32;;;;;;;13.65;7.68;;;;;;;19.54;100.00;92431.00;4905246;29;20035;-74
2023/06/12 07:48:58;;;;;;;14.35;8.27;;;;;;;19.52;100.00;92428.69;4924203;29;20074;-74
2023/06/12 07:51:27;;;;;;;15.68;7.95;;;;;;;19.53;100.00;92430.22;4934844;29;20126;-74
2023/06/12 07:53:53;;;;;;;14.80;8.70;;;;;;;19.47;100.00;92430.81;4941381;29;20119;-75
2023/06/12 07:56:22;;;;;;;11.80;7.90;;;;;;;19.45;100.00;92430.38;4919568;29;20557;-79
2023/06/12 07:58:51;;;;;;;15.68;8.60;;;;;;;19.68;100.00;92423.38;4919803;29;20028;-78
2023/06/12 08:01:18;;;;;;;13.95;7.70;;;;;;;19.64;100.00;92419.88;4940001;29;20098;-79
2023/06/12 08:03:43;;;;;;;13.48;6.78;;;;;;;19.87;100.00;92421.94;4939136;29;20071;-77
2023/06/12 08:06:12;;;;;;;11.32;7.80;;;;;;;19.76;100.00;92421.69;4922777;29;20061;-76
2023/06/12 08:08:46;;;;;;;16.15;9.65;;;;;;;19.66;100.00;92425.59;4936987;29;20040;-77
2023/06/12 08:11:13;;;;;;;17.40;9.30;;;;;;;19.73;100.00;92415.19;4938374;29;20090;-78
2023/06/12 08:13:42;;;;;;;13.30;8.15;;;;;;;19.93;100.00;92423.22;4922805;29;20047;-78
2023/06/12 08:16:08;;;;;;;10.98;6.85;;;;;;;20.10;100.00;92414.84;4922460;29;20393;-78
2023/06/12 08:18:34;;;;;;;13.45;7.63;;;;;;;20.09;100.00;92410.66;4906674;29;20043;-80
2023/06/12 08:21:01;;;;;;;13.60;7.75;;;;;;;20.08;100.00;92406.44;4922922;29;20046;-78
2023/06/12 08:23:27;;;;;;;11.63;6.03;;;;;;;20.12;100.00;92403.88;4935831;29;20070;-76
2023/06/12 08:25:55;;;;;;;17.70;8.77;;;;;;;20.14;100.00;92412.28;4933702;29;20404;-77
2023/06/12 08:28:20;;;;;;;11.80;7.78;;;;;;;20.15;100.00;92406.63;4953112;29;20126;-77
2023/06/12 08:30:46;;;;;;;12.10;7.05;;;;;;;20.30;100.00;92405.03;4936167;29;20457;-77
2023/06/12 08:33:15;;;;;;;8.75;5.93;;;;;;;20.43;100.00;92408.31;4935843;29;20067;-77
2023/06/12 08:35:43;;;;;;;8.57;5.25;;;;;;;20.45;100.00;92410.66;4935629;29;20042;-77
2023/06/12 08:38:09;;;;;;;16.83;7.95;;;;;;;20.17;100.00;92407.03;4935515;29;20058;-77
2023/06/12 08:40:35;;;;;;;9.68;6.03;;;;;;;20.11;100.00;92405.78;4951535;29;20501;-77
2023/06/12 08:43:00;;;;;;;8.02;5.30;;;;;;;20.30;100.00;92407.69;4936947;29;20452;-78
2023/06/12 08:45:26;;;;;;;7.03;4.43;;;;;;;20.38;100.00;92411.28;4938965;29;20050;-77
2023/06/12 08:47:53;;;;;;;9.52;4.45;;;;;;;20.56;100.00;92409.75;4922747;29;20715;-77
2023/06/12 08:50:19;;;;;;;8.63;4.60;;;;;;;20.75;100.00;92405.56;4919540;29;20600;-77
2023/06/12 08:52:46;;;;;;;6.68;3.00;;;;;;;20.73;100.00;92402.47;4922795;29;20094;-77
2023/06/12 08:55:16;;;;;;;7.95;4.18;;;;;;;20.67;100.00;92404.66;4956045;28;20134;-77
2023/06/12 08:57:45;;;;;;;6.78;3.75;;;;;;;20.58;100.00;92404.09;4956137;29;20046;-77
2023/06/12 09:00:13;;;;;;;8.40;4.13;;;;;;;20.60;100.00;92393.84;4955872;29;20027;-77
2023/06/12 09:02:53;;;;;;;7.78;4.88;;;;;;;20.52;100.00;92392.94;4955958;29;20039;-77
2023/06/12 09:05:37;;;;;;;8.95;3.65;;;;;;;20.61;100.00;92394.66;4955864;28;20062;-77
2023/06/12 09:08:04;;;;;;;6.13;3.10;;;;;;;20.66;100.00;92397.78;4955793;29;20039;-76
2023/06/12 09:10:31;;;;;;;7.00;4.00;;;;;;;20.90;100.00;92394.06;4955746;29;20032;-77
2023/06/12 09:12:58;;;;;;;6.07;3.65;;;;;;;21.06;100.00;92393.22;4955403;29;20079;-77
2023/06/12 09:15:24;;;;;;;6.18;2.97;;;;;;;20.74;100.00;92393.38;4955736;28;20039;-77
2023/06/12 09:17:52;;;;;;;5.43;2.92;;;;;;;20.90;100.00;92391.41;4955592;29;20134;-77
2023/06/12 09:20:27;;;;;;;4.45;2.50;;;;;;;20.99;100.00;92391.94;4956138;29;20039;-77
2023/06/12 09:22:54;;;;;;;4.82;3.28;;;;;;;20.99;100.00;92391.94;4955716;29;20043;-76
2023/06/12 09:25:20;;;;;;;6.00;2.40;;;;;;;20.76;100.00;92393.78;4955524;28;20031;-77
2023/06/12 09:27:47;;;;;;;5.40;3.38;;;;;;;20.67;100.00;92393.22;4935127;29;20501;-76
2023/06/12 09:30:13;;;;;;;7.38;2.92;;;;;;;20.98;100.00;92393.09;4936254;29;20046;-77
2023/06/12 09:32:43;;;;;;;5.20;2.75;;;;;;;21.11;100.00;92387.59;4936314;29;20028;-77
2023/06/12 09:35:10;;;;;;;4.55;2.75;;;;;;;20.92;100.00;92394.47;4935039;29;20051;-77
2023/06/12 09:37:37;;;;;;;6.38;3.05;;;;;;;20.87;100.00;92389.44;4936914;29;20127;-77
2023/06/12 09:40:14;;;;;;;4.57;2.90;;;;;;;20.76;100.00;92389.25;4940896;29;20031;-77
2023/06/12 09:42:41;;;;;;;4.32;2.38;;;;;;;20.81;100.00;92388.19;4938049;29;20067;-76
2023/06/12 09:45:10;;;;;;;6.25;3.60;;;;;;;20.92;100.00;92388.41;4955070;28;20037;-77
2023/06/12 09:47:47;;;;;;;4.57;2.83;;;;;;;20.92;100.00;92391.06;4955241;29;20026;-77
2023/06/12 09:50:18;;;;;;;4.10;2.47;;;;;;;21.11;100.00;92395.56;4952582;29;20078;-77
2023/06/12 09:52:45;;;;;;;5.63;2.90;;;;;;;21.27;100.00;92387.47;4954892;28;20043;-77
2023/06/12 09:55:13;;;;;;;4.10;2.58;;;;;;;21.43;100.00;92390.81;4937472;29;20031;-77
2023/06/12 09:57:42;;;;;;;4.97;2.70;;;;;;;21.25;100.00;92381.72;4954921;29;20564;-77
2023/06/12 10:00:09;;;;;;;6.20;2.78;;;;;;;21.09;100.00;92393.25;4937666;29;20110;-76
2023/06/12 10:02:43;;;;;;;5.80;3.05;;;;;;;21.21;100.00;92379.03;4949329;29;20133;-77
2023/06/12 10:05:19;;;;;;;5.07;2.70;;;;;;;21.44;100.00;92383.59;4954730;28;20729;-76
2023/06/12 10:07:48;;;;;;;4.93;2.95;;;;;;;21.50;100.00;92388.25;4954696;29;20564;-77
2023/06/12 10:10:18;;;;;;;8.05;3.45;;;;;;;21.44;100.00;92376.38;4954561;29;20027;-77
2023/06/12 10:12:44;;;;;;;5.85;3.17;;;;;;;21.03;100.00;92373.41;4954533;29;20600;-77
2023/06/12 10:15:11;;;;;;;7.13;3.20;;;;;;;20.73;100.00;92370.56;4954719;28;20562;-76
2023/06/12 10:17:39;;;;;;;5.70;3.28;;;;;;;20.41;100.00;92378.66;4954753;29;20031;-77
2023/06/12 10:20:07;;;;;;;5.78;3.08;;;;;;;20.28;100.00;92372.69;4937760;29;20174;-77
2023/06/12 10:22:32;;;;;;;4.80;2.90;;;;;;;20.29;100.00;92368.94;4954281;29;20400;-78
2023/06/12 10:24:59;;;;;;;5.55;2.80;;;;;;;20.33;100.00;92364.47;4955297;28;20043;-77
2023/06/12 10:27:25;;;;;;;5.07;3.10;;;;;;;20.31;100.00;92366.69;4951769;29;20527;-77
2023/06/12 10:29:56;;;;;;;4.53;2.70;;;;;;;20.28;100.00;92366.63;4953558;29;20031;-77
2023/06/12 10:32:22;;;;;;;5.30;3.10;;;;;;;19.99;100.00;92357.28;4955023;29;20378;-76
2023/06/12 10:34:48;;;;;;;5.00;2.90;;;;;;;20.22;99.11;92362.69;4954779;28;20138;-77
2023/06/12 10:37:24;;;;;;;4.80;2.92;;;;;;;20.73;100.00;92354.59;4950437;29;20042;-77
2023/06/12 10:40:15;;;;;;;5.07;2.83;;;;;;;20.91;100.00;92357.59;4929618;29;20664;-77
2023/06/12 10:42:47;;;;;;;5.10;2.90;;;;;;;21.27;99.09;92366.94;4956042;29;20141;-77
2023/06/12 10:45:27;;;;;;;4.72;2.40;;;;;;;21.51;95.63;92357.84;4953133;28;20663;-78
2023/06/12 10:48:02;;;;;;;4.70;2.45;;;;;;;21.64;89.79;92355.78;4951464;29;20107;-77
2023/06/12 10:50:28;;;;;;;3.65;2.25;;;;;;;21.69;98.87;92349.38;4954311;29;20065;-78
2023/06/12 10:52:57;;;;;;;4.72;2.60;;;;;;;21.72;92.60;92352.06;4953929;29;20043;-78
2023/06/12 10:55:31;;;;;;;4.40;2.63;;;;;;;21.87;79.74;92360.28;4952863;28;20050;-78
2023/06/12 10:58:01;;;;;;;6.15;2.70;;;;;;;21.70;79.64;92356.97;4936764;29;20050;-76
2023/06/12 11:00:32;;;;;;;4.93;2.72;;;;;;;21.75;74.75;92348.69;4950353;29;20260;-77
2023/06/12 11:03:03;;;;;;;4.88;2.35;;;;;;;21.83;75.28;92349.56;4948757;29;20042;-78
2023/06/12 11:05:30;;;;;;;5.43;2.88;;;;;;;21.60;80.38;92344.28;4947967;28;20083;-77
2023/06/12 11:08:00;;;;;;;5.18;2.90;;;;;;;21.96;80.56;92336.81;4952292;29;20031;-78
2023/06/12 11:10:27;;;;;;;4.85;2.53;;;;;;;21.90;72.79;92338.22;4954160;29;20043;-78
2023/06/12 11:12:54;;;;;;;4.38;2.45;;;;;;;21.90;74.20;92332.91;4933671;29;20118;-76
2023/06/12 11:15:21;;;;;;;3.55;2.28;;;;;;;21.97;73.81;92333.75;4950175;28;20038;-78
2023/06/12 11:17:47;;;;;;;5.15;2.72;;;;;;;22.17;77.94;92330.97;4949252;29;20027;-78